Flight Track Log - Related Links

Times and Time Zones

All times are in EDT time to prevent confusion due to time zone crossing. See the N779NC flight status page for this flight to view local times or setup timezone preferences in your user account.

Time Position Orientation Groundspeed Altitude Reporting Facility
EDT Latitude Longitude Course Direction KTS MPH feet Rate Location/Type
Tue 02:16:14 PM 32.4039 -89.9022 90° East 267 307 6,800  Level Memphis Center
Tue 02:17:14 PM 32.4014 -89.8086 92° East 278 320 9,000 2,000 Climbing Memphis Center
Tue 02:18:00 PM 32.3167 -89.9493 90° East  Level FlightAware Approximate
Tue 02:18:14 PM 32.4092 -89.7125 84° East 283 326 10,800  Level Memphis Center
Tue 02:19:00 PM 32.3167 -89.8008 90° East  Level FlightAware Approximate
Tue 02:19:14 PM 32.4086 -89.6044 90° East 304 350 11,800  Level Memphis Center
Tue 02:20:00 PM 32.3270 -89.6529 84° East  Level FlightAware Approximate
Tue 02:20:14 PM 32.4014 -89.4667 94° East 351 404 13,500  Level Memphis Center
Tue 02:21:00 PM 32.3334 -89.5047 90° East  Level FlightAware Approximate
Tue 02:22:14 PM 32.4036 -89.2181 89° East 373 429 16,700  Level Memphis Center
Tue 02:23:14 PM 32.3897 -89.0878 97° East 385 443 17,800 1,100 Climbing Memphis Center
Tue 02:24:14 PM 32.3800 -88.9578 95° East 391 450 18,900 1,200 Climbing Memphis Center
Tue 02:25:14 PM 32.3722 -88.8250 94° East 391 450 20,200 1,300 Climbing Memphis Center
Tue 02:26:14 PM 32.3894 -88.6942 81° East 397 457 21,500 1,150 Climbing Memphis Center
Tue 02:27:14 PM 32.4189 -88.5658 75° East 402 463 22,500 1,100 Climbing Memphis Center
Tue 02:28:14 PM 32.4378 -88.4300 81° East 408 470 23,700 1,011 Climbing Memphis Center
Tue 02:30:24 PM 32.4678 -88.1306 83° East 435 501 25,700 884 Climbing Atlanta Center
Tue 02:31:24 PM 32.4994 -87.9914 75° East 435 501 26,500 700 Climbing Atlanta Center
Tue 02:32:24 PM 32.5292 -87.8450 76° East 440 506 27,100 1,000 Climbing Atlanta Center
Tue 02:33:24 PM 32.5625 -87.7061 74° East 445 512 28,500 950 Climbing Atlanta Center
Tue 02:34:24 PM 32.6000 -87.5669 72° East 440 506 29,000 250 Climbing Atlanta Center
Tue 02:35:24 PM 32.6311 -87.4253 75° East 440 506 29,000  Level Atlanta Center
Tue 02:36:24 PM 32.6683 -87.2836 73° East 440 506 29,000  Level Atlanta Center
Tue 02:37:24 PM 32.7033 -87.1417 74° East 440 506 29,000  Level Atlanta Center
Tue 02:38:24 PM 32.7361 -86.9972 75° East 440 506 29,000  Level Atlanta Center
Tue 02:39:24 PM 32.7728 -86.8503 73° East 446 513 29,000  Level Atlanta Center
Tue 02:40:24 PM 32.8094 -86.7056 73° East 452 520 29,000  Level Atlanta Center
Tue 02:41:24 PM 32.8461 -86.5558 74° East 452 520 29,000 -750 Level Atlanta Center
Tue 02:42:24 PM 32.8803 -86.4083 75° East 452 520 27,500 -1,700 Descending Atlanta Center
Tue 02:43:24 PM 32.9081 -86.2631 77° East 452 520 25,600 -1,650 Descending Atlanta Center
Tue 02:44:24 PM 32.9189 -86.1150 85° East 452 520 24,200 -800 Descending Atlanta Center
Tue 02:45:24 PM 32.9089 -85.9664 95° East 440 506 24,000 -100 Descending Atlanta Center
Tue 02:46:24 PM 32.9067 -85.8228 91° East 440 506 24,000 -650 Level Atlanta Center
Tue 02:47:24 PM 32.9147 -85.6992 86° East 435 501 22,700 -2,350 Descending Atlanta Center
Tue 02:48:24 PM 32.9539 -85.5686 70° East 420 483 19,300 -3,150 Descending Atlanta Center
Tue 02:49:24 PM 33.0097 -85.4458 62° Northeast 414 476 16,400 -2,500 Descending Atlanta Center
Tue 02:50:24 PM 33.0467 -85.3225 70° East 407 468 14,300 -1,200 Descending Atlanta Center
Tue 02:51:24 PM 33.0689 -85.1817 79° East 397 457 14,000 -150 Descending Atlanta Center
Tue 02:52:24 PM 33.1158 -85.0631 65° Northeast 391 450 14,000  Level Atlanta Center
Tue 02:53:24 PM 33.1958 -84.9722 44° Northeast 376 433 14,000 -50 Level Atlanta Center
Tue 02:54:24 PM 33.2675 -84.8786 48° Northeast 376 433 13,900 -550 Descending Atlanta Center
Tue 02:55:24 PM 33.3433 -84.7897 44° Northeast 370 426 12,900 -950 Descending Atlanta Center
Tue 02:56:24 PM 33.4083 -84.7133 44° Northeast 364 419 12,000 -450 Descending Atlanta Center
Tue 02:57:24 PM 33.4714 -84.6414 44° Northeast 330 380 12,000  Level Atlanta Center
Tue 02:58:24 PM 33.5239 -84.5819 43° Northeast 275 316 12,000  Level Atlanta Center
Tue 02:59:24 PM 33.5825 -84.5275 38° Northeast 256 295 12,000 -250 Level Atlanta Center
Tue 03:00:24 PM 33.6017 -84.4453 74° East 246 283 11,500 -931 Descending Atlanta Center
Tue 03:01:20 PM 33.5833 -84.3667 106° East 227 261 10,200 -1,377 Descending Atlanta TRACON
Tue 03:02:26 PM 33.5333 -84.3000 132° Southeast 213 245 8,700 -1,450 Descending Atlanta TRACON
Tue 03:03:20 PM 33.5333 -84.2500 90° East 213 245 7,300 -895 Descending Atlanta TRACON
Tue 03:04:20 PM 33.5333 -84.1667 90° East 211 243 7,000 -1,050 Descending Atlanta TRACON
Tue 03:05:20 PM 33.5500 -84.1000 73° East 216 249 5,200 -1,684 Descending Atlanta TRACON
Tue 03:06:14 PM 33.5833 -84.0667 40° Northeast 214 246 3,800 -1,158 Descending Atlanta TRACON
Tue 03:07:14 PM 33.6000 -84.1333 287° West 193 222 3,000 -400 Descending Atlanta TRACON
Tue 03:08:14 PM 33.6167 -84.1833 292° West 192 221 3,000  Level Atlanta TRACON
Tue 03:09:20 PM 33.6167 -84.2667 270° West 192 221 3,000 -200 Level Atlanta TRACON
Tue 03:10:14 PM 33.6167 -84.3167 270° West 186 214 2,600 -632 Descending Atlanta TRACON
Tue 03:11:14 PM 33.6167 -84.3667 270° West 145 167 1,800 -800 Descending Atlanta TRACON
Tue 03:13:00 PM 33.6333 -84.4167 40° Northeast  Level FlightAware Approximate
Tue 03:20:00 PM 33.6367 -84.4279 40° Northeast  Level Estimated
Tue 03:21:00 PM 33.6367 -84.4279 40° Northeast  Level Estimated
Tue 03:22:00 PM 33.6367 -84.4279 40° Northeast  Level Estimated

Login

Don't have an account? Register now (free) for customized features, flight alerts, and more!